Sierra Vista, AZ

12:07 AM MST on July 27, 2016 (GMT -0700)
Foothills | | Change Station

Elev 4508 ft 31.54 °N, 110.26 °W | Updated 1 minute ago

Clear
Clear
77.1 °F
Feels Like 79 °F
N
3.0
Wind Variable Wind from WSW
Gusts 10.0 mph

Today
High -- | Low -- °F
--% Chance of Precip.
Yesterday
High -- | Low -- °F
Precip. -- in
Pressure 29.89 in
Visibility 10.0 miles
Clouds Clear
Heat Index 79 °F
Dew Point 58 °F
Humidity 51%
Rainfall 0.00 in
Snow Depth Not available.
5:34 AM 7:20 PM
Last Quarter, 46% visible
METAR KFHU 270658Z AUTO 26011KT 10SM CLR 24/14 A3013 RMK AO2 SLP120 T02420144 403510226
Pressure 29.89 in
Visibility 10.0 miles
Clouds Clear
Heat Index 79 °F
Dew Point 58 °F
Humidity 51%
Rainfall 0.00 in
Snow Depth Not available.
5:34 AM 7:20 PM
Last Quarter, 46% visible
METAR KFHU 270658Z AUTO 26011KT 10SM CLR 24/14 A3013 RMK AO2 SLP120 T02420144 403510226

10-Day Weather Forecast

Almanac

Astronomy

Jul. 27, 2016 Rise Set
Actual Time
Civil Twilight
Nautical Twilight
Astronomical Twilight
Moon
Length of Visible Light
Length of Day
Tomorrow will be .
, % of the Moon is Illuminated

Today's Extremes

State Highs State Lows

Community

WunderPhotos

Upload Photos

1,927,818 photos uploaded!

WunderBlog® & News

Nearby

Air Quality

  Air Quality AQ Index Pollutant
Not available.

Snow Depth

Station Depth Elevation

Earthquake Activity

City Distance Mag. Time & Date
Minimum magnitude displayed is 2.5.

Coastal Water Temperatures

Place Temperature

Stations

Nearby Weather Stations

Station Location Temp. Windchill Dew Point Humidity Wind Precip. Elev Updated Type
                   

Watches & Warnings

There are currently no watches in effect.